createdAt,value
2023-01-07T00:02:08.995Z,10.81
2023-01-07T00:04:38.227Z,10.64
2023-01-07T00:07:06.068Z,10.78
2023-01-07T00:09:33.925Z,10.72
2023-01-07T00:12:01.815Z,10.90
2023-01-07T00:14:29.637Z,10.73
2023-01-07T00:16:57.535Z,10.89
2023-01-07T00:19:25.400Z,10.79
2023-01-07T00:21:54.918Z,10.74
2023-01-07T00:24:22.740Z,10.70
2023-01-07T00:26:50.752Z,10.78
2023-01-07T00:29:19.266Z,10.79
2023-01-07T00:31:47.261Z,11.01
2023-01-07T00:34:15.991Z,10.89
2023-01-07T00:36:45.434Z,10.96
2023-01-07T00:39:16.903Z,10.95
2023-01-07T00:42:06.533Z,10.99
2023-01-07T00:44:35.258Z,10.87
2023-01-07T00:47:03.688Z,10.97
2023-01-07T00:49:31.665Z,11.10
2023-01-07T00:51:59.530Z,11.16
2023-01-07T00:54:28.751Z,11.11
2023-01-07T00:56:57.068Z,11.06
2023-01-07T00:59:25.111Z,11.20
2023-01-07T01:01:53.152Z,11.30
2023-01-07T01:04:21.160Z,11.39
2023-01-07T01:06:49.083Z,11.36
2023-01-07T01:09:18.282Z,11.35
2023-01-07T01:11:48.336Z,11.27
2023-01-07T01:14:16.270Z,11.22
2023-01-07T01:16:46.686Z,11.32
2023-01-07T01:19:14.632Z,11.27
2023-01-07T01:21:42.555Z,11.31
2023-01-07T01:24:11.061Z,11.37
2023-01-07T01:26:40.264Z,11.40
2023-01-07T01:29:09.550Z,11.33
2023-01-07T01:31:37.579Z,11.27
2023-01-07T01:34:06.428Z,11.31
2023-01-07T01:36:35.403Z,11.44
2023-01-07T01:39:04.924Z,11.45
2023-01-07T01:41:34.425Z,11.51
2023-01-07T01:44:03.164Z,11.54
2023-01-07T01:46:37.742Z,11.67
2023-01-07T01:49:16.219Z,11.46
2023-01-07T01:51:52.937Z,11.47
2023-01-07T01:54:22.076Z,11.34
2023-01-07T01:56:56.139Z,11.32
2023-01-07T01:59:28.238Z,11.48
2023-01-07T02:01:59.411Z,11.47
2023-01-07T02:04:28.765Z,11.45
2023-01-07T02:07:01.390Z,11.52
2023-01-07T02:09:31.011Z,11.61
2023-01-07T02:12:09.973Z,11.55
2023-01-07T02:14:51.702Z,11.64
2023-01-07T02:17:37.527Z,11.68
2023-01-07T02:20:26.847Z,11.60
2023-01-07T02:23:23.289Z,11.61
2023-01-07T02:26:29.722Z,11.58
2023-01-07T02:29:21.464Z,11.69
2023-01-07T02:32:07.230Z,11.69
2023-01-07T02:34:43.797Z,11.69
2023-01-07T02:37:16.955Z,11.73
2023-01-07T02:39:58.154Z,11.76
2023-01-07T02:42:32.732Z,11.64
2023-01-07T02:45:07.198Z,11.82
2023-01-07T02:47:39.400Z,11.78
2023-01-07T02:50:09.250Z,11.83
2023-01-07T02:52:38.071Z,11.94
2023-01-07T02:55:11.991Z,11.82
2023-01-07T02:58:09.966Z,11.71
2023-01-07T03:00:59.549Z,11.80
2023-01-07T03:03:46.412Z,11.92
2023-01-07T03:06:30.642Z,11.82
2023-01-07T03:09:09.928Z,11.92
2023-01-07T03:11:46.156Z,11.73
2023-01-07T03:14:20.767Z,11.81
2023-01-07T03:16:55.692Z,11.85
2023-01-07T03:19:27.114Z,11.97
2023-01-07T03:21:57.048Z,11.78
2023-01-07T03:24:27.824Z,11.69
2023-01-07T03:26:59.560Z,11.79
2023-01-07T03:29:28.041Z,11.77
2023-01-07T03:32:02.841Z,11.68
2023-01-07T03:34:34.732Z,11.74
2023-01-07T03:37:05.738Z,11.90
2023-01-07T03:39:37.317Z,11.76
2023-01-07T03:42:25.736Z,11.73
2023-01-07T03:44:54.299Z,11.78
2023-01-07T03:47:24.932Z,11.79
2023-01-07T03:49:54.206Z,11.66
2023-01-07T03:52:22.377Z,11.63
2023-01-07T03:54:50.427Z,11.81
2023-01-07T03:57:18.844Z,11.63
2023-01-07T03:59:46.946Z,11.79
2023-01-07T04:02:15.343Z,11.78
2023-01-07T04:04:43.447Z,11.80
2023-01-07T04:07:13.789Z,11.77
2023-01-07T04:09:41.835Z,11.90
2023-01-07T04:12:10.516Z,11.77
2023-01-07T04:14:38.582Z,11.74
2023-01-07T04:17:06.502Z,11.73
2023-01-07T04:19:34.975Z,11.61
2023-01-07T04:22:02.973Z,11.75
2023-01-07T04:24:34.295Z,11.83
2023-01-07T04:27:02.375Z,11.77
2023-01-07T04:29:30.606Z,11.71
2023-01-07T04:31:58.982Z,11.74
2023-01-07T04:34:26.993Z,11.68
2023-01-07T04:36:54.951Z,11.80
2023-01-07T04:39:24.383Z,11.76
2023-01-07T04:41:53.724Z,11.73
2023-01-07T04:44:21.842Z,11.92
2023-01-07T04:46:49.669Z,11.94
2023-01-07T04:49:20.292Z,11.67
2023-01-07T04:51:48.638Z,11.70
2023-01-07T04:54:17.023Z,11.77
2023-01-07T04:56:44.963Z,11.65
2023-01-07T04:59:15.149Z,11.68
2023-01-07T05:01:43.684Z,11.68
2023-01-07T05:04:12.043Z,11.73
2023-01-07T05:06:40.034Z,11.81
2023-01-07T05:09:09.075Z,11.78
2023-01-07T05:11:37.124Z,11.65
2023-01-07T05:14:05.782Z,11.48
2023-01-07T05:16:36.136Z,11.70
2023-01-07T05:19:07.753Z,11.75
2023-01-07T05:21:40.024Z,11.66
2023-01-07T05:24:09.037Z,11.58
2023-01-07T05:26:37.746Z,11.64
2023-01-07T05:29:05.973Z,11.74
2023-01-07T05:31:35.747Z,11.80
2023-01-07T05:34:04.075Z,11.76
2023-01-07T05:36:32.044Z,11.79
2023-01-07T05:38:59.986Z,11.67
2023-01-07T05:41:28.161Z,11.77
2023-01-07T05:43:56.934Z,11.67
2023-01-07T05:46:25.240Z,11.58
2023-01-07T05:48:54.773Z,11.72
2023-01-07T05:51:22.732Z,11.68
2023-01-07T05:53:50.573Z,11.62
2023-01-07T05:56:18.462Z,11.57
2023-01-07T05:58:46.364Z,11.74
2023-01-07T06:01:14.427Z,11.59
2023-01-07T06:03:42.641Z,11.54
2023-01-07T06:06:12.047Z,11.40
2023-01-07T06:08:40.419Z,11.44
2023-01-07T06:11:09.446Z,11.54
2023-01-07T06:13:37.697Z,11.51
2023-01-07T06:16:08.069Z,11.65
2023-01-07T06:18:36.506Z,11.60
2023-01-07T06:21:05.035Z,11.47
2023-01-07T06:23:34.430Z,11.64
2023-01-07T06:26:02.948Z,11.79
2023-01-07T06:28:30.896Z,11.70
2023-01-07T06:30:59.015Z,11.80
2023-01-07T06:33:27.082Z,11.64
2023-01-07T06:35:54.945Z,11.63
2023-01-07T06:38:22.931Z,11.71
2023-01-07T06:40:52.243Z,11.80
2023-01-07T06:43:20.410Z,11.71
2023-01-07T06:45:48.715Z,11.70
2023-01-07T06:48:17.030Z,11.76
2023-01-07T06:50:46.145Z,11.74
2023-01-07T06:53:14.329Z,11.63
2023-01-07T06:55:42.176Z,11.60
2023-01-07T06:58:11.599Z,11.54
2023-01-07T07:00:39.865Z,11.56
2023-01-07T07:03:07.918Z,11.52
2023-01-07T07:05:36.279Z,11.77
2023-01-07T07:08:06.495Z,11.74
2023-01-07T07:10:35.648Z,11.53
2023-01-07T07:13:04.048Z,11.56
2023-01-07T07:15:33.837Z,11.60
2023-01-07T07:18:01.722Z,11.72
2023-01-07T07:20:29.902Z,11.64
2023-01-07T07:22:57.946Z,11.65
2023-01-07T07:25:25.956Z,11.65
2023-01-07T07:27:53.921Z,11.49
2023-01-07T07:30:22.084Z,11.51
2023-01-07T07:33:12.604Z,11.64
2023-01-07T07:35:40.528Z,11.66
2023-01-07T07:38:08.629Z,11.48
2023-01-07T07:40:37.466Z,11.57
2023-01-07T07:43:10.492Z,11.49
2023-01-07T07:45:40.855Z,11.69
2023-01-07T07:48:11.232Z,11.60
2023-01-07T07:50:39.475Z,11.59
2023-01-07T07:53:10.256Z,11.80
2023-01-07T07:55:39.313Z,11.56
2023-01-07T07:58:07.597Z,11.54
2023-01-07T08:00:35.695Z,11.55
2023-01-07T08:03:04.346Z,11.77
2023-01-07T08:05:34.395Z,11.72
2023-01-07T08:08:02.573Z,11.50
2023-01-07T08:10:31.088Z,11.59
2023-01-07T08:13:00.100Z,11.68
2023-01-07T08:15:28.665Z,11.57
2023-01-07T08:18:00.918Z,11.53
2023-01-07T08:20:29.760Z,11.63
2023-01-07T08:23:01.459Z,11.62
2023-01-07T08:25:30.221Z,11.59
2023-01-07T08:27:59.389Z,11.58
2023-01-07T08:30:28.430Z,11.54
2023-01-07T08:32:57.245Z,11.71
2023-01-07T08:35:25.367Z,11.70
2023-01-07T08:37:54.183Z,11.57
2023-01-07T08:40:24.049Z,11.70
2023-01-07T08:42:52.581Z,11.43
2023-01-07T08:45:21.039Z,11.52
2023-01-07T08:47:49.478Z,11.38
2023-01-07T08:50:18.026Z,11.50
2023-01-07T08:52:47.231Z,11.71
2023-01-07T08:55:15.878Z,11.68
2023-01-07T08:57:45.581Z,11.47
2023-01-07T09:00:15.888Z,11.48
2023-01-07T09:02:45.012Z,11.60
2023-01-07T09:05:13.645Z,11.50
2023-01-07T09:07:42.142Z,11.58
2023-01-07T09:10:12.269Z,11.37
2023-01-07T09:12:40.453Z,11.32
2023-01-07T09:15:11.851Z,11.36
2023-01-07T09:17:40.107Z,11.41
2023-01-07T09:20:09.270Z,11.37
2023-01-07T09:22:38.454Z,11.42
2023-01-07T09:25:07.820Z,11.64
2023-01-07T09:27:37.425Z,11.67
2023-01-07T09:30:08.089Z,11.65
2023-01-07T09:32:37.651Z,11.42
2023-01-07T09:35:07.295Z,11.48
2023-01-07T09:37:35.399Z,11.48
2023-01-07T09:40:03.872Z,11.53
2023-01-07T09:42:42.579Z,11.52
2023-01-07T09:45:18.111Z,11.55
2023-01-07T09:47:50.703Z,11.45
2023-01-07T09:50:29.074Z,11.49
2023-01-07T09:53:01.717Z,11.47
2023-01-07T09:55:34.958Z,11.51
2023-01-07T09:58:03.418Z,11.55
2023-01-07T10:00:35.111Z,11.59
2023-01-07T10:03:17.414Z,11.47
2023-01-07T10:05:57.370Z,11.22
2023-01-07T10:08:39.639Z,11.39
2023-01-07T10:11:23.440Z,11.32
2023-01-07T10:14:07.763Z,11.42
2023-01-07T10:16:43.972Z,11.53
2023-01-07T10:19:24.461Z,11.57
2023-01-07T10:21:57.703Z,11.45
2023-01-07T10:24:28.489Z,11.47
2023-01-07T10:27:01.618Z,11.31
2023-01-07T10:29:35.579Z,11.46
2023-01-07T10:32:14.085Z,11.49
2023-01-07T10:34:47.830Z,11.50
2023-01-07T10:37:26.900Z,11.46
2023-01-07T10:40:07.946Z,11.44
2023-01-07T10:42:40.691Z,11.50
2023-01-07T10:45:29.417Z,11.61
2023-01-07T10:48:18.465Z,11.75
2023-01-07T10:51:02.656Z,11.68
2023-01-07T10:53:45.108Z,11.60
2023-01-07T10:56:25.131Z,11.49
2023-01-07T10:58:53.825Z,11.53
2023-01-07T11:01:26.945Z,11.48
2023-01-07T11:03:57.410Z,11.51
2023-01-07T11:06:37.961Z,11.48
2023-01-07T11:09:10.840Z,11.50
2023-01-07T11:11:40.701Z,11.63
2023-01-07T11:14:13.780Z,11.53
2023-01-07T11:16:48.670Z,11.68
2023-01-07T11:19:17.542Z,11.68
2023-01-07T11:21:48.939Z,11.92
2023-01-07T11:24:31.714Z,11.82
2023-01-07T11:27:03.553Z,11.79
2023-01-07T11:29:38.383Z,11.75
2023-01-07T11:32:08.174Z,11.83
2023-01-07T11:34:39.152Z,12.04
2023-01-07T11:37:13.216Z,11.89
2023-01-07T11:39:41.628Z,11.88
2023-01-07T11:42:35.915Z,11.91
2023-01-07T11:45:11.099Z,11.87
2023-01-07T11:47:46.261Z,12.01
2023-01-07T11:50:24.027Z,12.06
2023-01-07T11:53:03.355Z,12.06
2023-01-07T11:55:32.079Z,12.02
2023-01-07T11:58:28.397Z,12.10
2023-01-07T12:01:04.872Z,12.02
2023-01-07T12:03:33.256Z,12.11
2023-01-07T12:06:08.119Z,12.26
2023-01-07T12:08:38.394Z,12.18
2023-01-07T12:11:09.506Z,12.13
2023-01-07T12:13:42.037Z,12.27
2023-01-07T12:16:11.715Z,12.16
2023-01-07T12:18:57.824Z,12.11
2023-01-07T12:21:36.323Z,12.19
2023-01-07T12:24:36.196Z,12.14
2023-01-07T12:27:15.823Z,11.98
2023-01-07T12:29:59.219Z,12.26
2023-01-07T12:32:41.599Z,12.43
2023-01-07T12:35:15.901Z,12.45
2023-01-07T12:37:51.608Z,12.31
2023-01-07T12:40:35.133Z,12.35
2023-01-07T12:43:13.370Z,12.51
2023-01-07T12:45:48.951Z,12.61
2023-01-07T12:48:24.584Z,12.62
2023-01-07T12:50:56.916Z,12.54
2023-01-07T12:53:35.486Z,12.75
2023-01-07T12:56:12.968Z,12.67
2023-01-07T12:58:48.837Z,12.82
2023-01-07T13:01:27.240Z,12.57
2023-01-07T13:04:10.542Z,12.54
2023-01-07T13:06:45.466Z,12.73
2023-01-07T13:09:23.051Z,12.79
2023-01-07T13:12:40.898Z,12.94
2023-01-07T13:15:06.038Z,12.65
2023-01-07T13:17:34.580Z,12.48
2023-01-07T13:20:04.832Z,12.60
2023-01-07T13:22:39.643Z,12.61
2023-01-07T13:25:25.967Z,12.81
2023-01-07T13:28:24.818Z,12.82
2023-01-07T13:31:11.012Z,12.74
2023-01-07T13:33:46.664Z,12.86
2023-01-07T13:36:24.962Z,12.76
2023-01-07T13:39:31.525Z,12.64
2023-01-07T13:42:14.444Z,12.50
2023-01-07T13:44:57.362Z,12.33
2023-01-07T13:47:32.309Z,12.37
2023-01-07T13:50:04.137Z,12.46
2023-01-07T13:52:34.841Z,12.47
2023-01-07T13:55:05.348Z,12.49
2023-01-07T13:57:44.520Z,12.41
2023-01-07T14:00:41.478Z,12.39
2023-01-07T14:03:40.281Z,12.39
2023-01-07T14:06:42.381Z,12.46
2023-01-07T14:09:32.783Z,12.30
2023-01-07T14:12:31.693Z,12.21
2023-01-07T14:15:26.551Z,12.19
2023-01-07T14:18:07.644Z,12.03
2023-01-07T14:20:47.594Z,12.22
2023-01-07T14:23:29.067Z,12.33
2023-01-07T14:26:09.653Z,12.39
2023-01-07T14:29:17.138Z,12.46
2023-01-07T14:31:45.919Z,12.38
2023-01-07T14:34:22.273Z,12.31
2023-01-07T14:37:15.538Z,12.21
2023-01-07T14:39:45.513Z,12.34
2023-01-07T14:42:42.077Z,12.44
2023-01-07T14:45:46.945Z,12.45
2023-01-07T14:48:29.805Z,12.38
2023-01-07T14:51:17.142Z,12.32
2023-01-07T14:54:08.404Z,12.37
2023-01-07T14:56:52.553Z,12.27
2023-01-07T14:59:36.102Z,12.20
2023-01-07T15:02:37.904Z,12.17
2023-01-07T15:05:23.337Z,11.95
2023-01-07T15:08:18.501Z,12.05
2023-01-07T15:11:08.738Z,12.04
2023-01-07T15:14:01.057Z,11.97
2023-01-07T15:16:31.547Z,11.98
2023-01-07T15:19:00.275Z,11.80
2023-01-07T15:21:37.364Z,11.75
2023-01-07T15:24:15.914Z,11.87
2023-01-07T15:26:51.257Z,11.72
2023-01-07T15:29:27.923Z,11.55
2023-01-07T15:32:04.889Z,11.64
2023-01-07T15:34:34.635Z,11.43
2023-01-07T15:37:06.494Z,11.64
2023-01-07T15:39:40.568Z,11.66
2023-01-07T15:42:16.300Z,11.59
2023-01-07T15:44:45.058Z,11.75
2023-01-07T15:47:32.667Z,11.80
2023-01-07T15:50:22.188Z,11.70
2023-01-07T15:52:51.976Z,11.69
2023-01-07T15:55:27.418Z,11.63
2023-01-07T15:58:01.221Z,11.86
2023-01-07T16:00:30.144Z,11.64
2023-01-07T16:02:59.398Z,11.58
2023-01-07T16:05:28.637Z,11.70
2023-01-07T16:07:58.970Z,11.57
2023-01-07T16:10:32.290Z,11.48
2023-01-07T16:13:03.096Z,11.51
2023-01-07T16:15:33.840Z,11.36
2023-01-07T16:18:03.995Z,11.50
2023-01-07T16:20:34.574Z,11.47
2023-01-07T16:23:21.748Z,11.54
2023-01-07T16:25:56.432Z,11.45
2023-01-07T16:28:29.218Z,11.64
2023-01-07T16:30:58.929Z,11.78
2023-01-07T16:33:29.924Z,11.89
2023-01-07T16:36:01.447Z,11.83
2023-01-07T16:38:30.184Z,11.81
2023-01-07T16:41:00.119Z,11.81
2023-01-07T16:43:44.462Z,11.96
2023-01-07T16:46:23.654Z,11.83
2023-01-07T16:49:19.715Z,11.97
2023-01-07T16:51:50.652Z,11.85
2023-01-07T16:54:35.226Z,11.97
2023-01-07T16:57:07.039Z,11.68
2023-01-07T16:59:38.576Z,11.81
2023-01-07T17:02:27.201Z,11.90
2023-01-07T17:04:56.091Z,11.71
2023-01-07T17:07:27.381Z,11.71
2023-01-07T17:09:58.651Z,11.92
2023-01-07T17:12:37.168Z,11.78
2023-01-07T17:15:34.300Z,11.80
2023-01-07T17:18:28.740Z,11.65
2023-01-07T17:21:00.215Z,11.60
2023-01-07T17:23:47.046Z,11.58
2023-01-07T17:26:22.186Z,11.48
2023-01-07T17:28:54.367Z,11.53
2023-01-07T17:31:23.518Z,11.65
2023-01-07T17:33:52.185Z,11.60
2023-01-07T17:36:22.667Z,11.70
2023-01-07T17:38:50.998Z,11.54
2023-01-07T17:41:39.460Z,11.59
2023-01-07T17:44:12.974Z,11.46
2023-01-07T17:46:41.391Z,11.78
2023-01-07T17:49:11.010Z,11.58
2023-01-07T17:51:41.933Z,11.65
2023-01-07T17:54:20.033Z,11.51
2023-01-07T17:56:48.563Z,11.42
2023-01-07T17:59:19.729Z,11.45
2023-01-07T18:01:48.212Z,11.42
2023-01-07T18:04:17.637Z,11.35
2023-01-07T18:06:48.654Z,11.45
2023-01-07T18:09:16.715Z,11.64
2023-01-07T18:12:04.192Z,11.60
2023-01-07T18:14:34.038Z,11.57
2023-01-07T18:17:02.936Z,11.58
2023-01-07T18:19:31.292Z,11.47
2023-01-07T18:21:59.397Z,11.43
2023-01-07T18:24:27.449Z,11.39
2023-01-07T18:26:56.649Z,11.27
2023-01-07T18:29:25.629Z,11.11
2023-01-07T18:31:55.227Z,11.16
2023-01-07T18:34:23.639Z,11.32
2023-01-07T18:36:54.124Z,11.17
2023-01-07T18:39:22.122Z,11.15
2023-01-07T18:41:51.047Z,11.08
2023-01-07T18:44:20.167Z,11.06
2023-01-07T18:46:48.723Z,11.11
2023-01-07T18:49:18.267Z,11.12
2023-01-07T18:51:47.850Z,11.01
2023-01-07T18:54:16.666Z,10.92
2023-01-07T18:56:45.863Z,10.99
2023-01-07T18:59:14.511Z,10.73
2023-01-07T19:01:43.104Z,10.83
2023-01-07T19:04:22.621Z,10.90
2023-01-07T19:06:52.287Z,10.96
2023-01-07T19:09:21.071Z,10.74
2023-01-07T19:11:49.648Z,10.72
2023-01-07T19:14:17.958Z,10.75
2023-01-07T19:16:46.509Z,10.71
2023-01-07T19:19:15.172Z,10.65
2023-01-07T19:21:43.662Z,10.87
2023-01-07T19:24:13.509Z,10.78
2023-01-07T19:26:42.997Z,10.80
2023-01-07T19:29:13.922Z,10.84
2023-01-07T19:31:43.164Z,10.84
2023-01-07T19:34:12.229Z,10.81
2023-01-07T19:36:45.266Z,10.94
2023-01-07T19:39:17.262Z,10.74
2023-01-07T19:41:49.426Z,10.75
2023-01-07T19:44:20.021Z,10.66
2023-01-07T19:46:49.715Z,10.81
2023-01-07T19:49:19.500Z,10.82
2023-01-07T19:51:50.044Z,10.77
2023-01-07T19:54:22.496Z,10.54
2023-01-07T19:56:51.960Z,10.60
2023-01-07T19:59:20.690Z,10.79
2023-01-07T20:01:51.076Z,10.73
2023-01-07T20:04:20.326Z,10.71
2023-01-07T20:06:51.680Z,10.83
2023-01-07T20:09:23.318Z,10.82
2023-01-07T20:11:52.165Z,10.76
2023-01-07T20:14:20.190Z,10.73
2023-01-07T20:16:48.491Z,10.55
2023-01-07T20:19:17.131Z,10.52
2023-01-07T20:21:45.171Z,10.61
2023-01-07T20:24:13.798Z,10.66
2023-01-07T20:26:43.232Z,10.49
2023-01-07T20:29:11.306Z,10.68
2023-01-07T20:31:40.156Z,10.58
2023-01-07T20:34:08.703Z,10.68
2023-01-07T20:36:37.323Z,10.60
2023-01-07T20:39:06.407Z,10.66
2023-01-07T20:41:37.963Z,10.66
2023-01-07T20:44:10.013Z,10.70
2023-01-07T20:46:39.435Z,10.76
2023-01-07T20:49:08.433Z,10.80
2023-01-07T20:51:37.833Z,10.90
2023-01-07T20:54:06.658Z,10.77
2023-01-07T20:56:35.377Z,10.89
2023-01-07T20:59:04.051Z,10.89
2023-01-07T21:01:34.290Z,10.85
2023-01-07T21:04:03.390Z,10.83
2023-01-07T21:06:31.634Z,10.88
2023-01-07T21:09:00.316Z,11.00
2023-01-07T21:11:28.521Z,10.81
2023-01-07T21:13:58.018Z,10.85
2023-01-07T21:16:29.581Z,10.85
2023-01-07T21:19:00.916Z,10.91
2023-01-07T21:21:29.130Z,11.11
2023-01-07T21:23:58.889Z,11.09
2023-01-07T21:26:27.288Z,11.11
2023-01-07T21:28:56.506Z,11.13
2023-01-07T21:31:25.384Z,10.98
2023-01-07T21:33:56.866Z,10.89
2023-01-07T21:36:28.685Z,11.01
2023-01-07T21:38:59.297Z,11.17
2023-01-07T21:41:33.870Z,11.30
2023-01-07T21:44:03.257Z,11.03
2023-01-07T21:46:33.244Z,11.08
2023-01-07T21:49:04.425Z,10.91
2023-01-07T21:51:34.039Z,11.05
2023-01-07T21:54:02.101Z,11.17
2023-01-07T21:56:32.946Z,11.23
2023-01-07T21:59:01.606Z,11.11
2023-01-07T22:01:31.547Z,11.08
2023-01-07T22:04:00.308Z,11.01
2023-01-07T22:06:30.979Z,10.72
2023-01-07T22:09:02.415Z,10.94
2023-01-07T22:11:30.443Z,10.77
2023-01-07T22:14:00.720Z,10.91
2023-01-07T22:16:33.308Z,10.86
2023-01-07T22:19:02.240Z,10.65
2023-01-07T22:21:30.631Z,10.61
2023-01-07T22:24:00.018Z,10.65
2023-01-07T22:26:28.553Z,10.49
2023-01-07T22:29:01.840Z,10.70
2023-01-07T22:31:32.826Z,10.56
2023-01-07T22:34:01.010Z,10.40
2023-01-07T22:36:36.969Z,10.38
2023-01-07T22:39:11.465Z,10.48
2023-01-07T22:41:39.917Z,10.51
2023-01-07T22:44:14.703Z,10.66
2023-01-07T22:46:45.772Z,10.61
2023-01-07T22:49:13.765Z,10.70
2023-01-07T22:51:45.073Z,10.72
2023-01-07T22:54:15.713Z,10.83
2023-01-07T22:56:44.940Z,10.91
2023-01-07T22:59:13.343Z,11.02
2023-01-07T23:01:41.197Z,10.91
2023-01-07T23:04:09.378Z,11.05
2023-01-07T23:06:37.485Z,11.11
2023-01-07T23:09:05.963Z,11.06
2023-01-07T23:11:50.743Z,11.14
2023-01-07T23:14:20.929Z,11.21
2023-01-07T23:16:49.856Z,10.96
2023-01-07T23:19:18.437Z,11.04
2023-01-07T23:21:47.823Z,11.01
2023-01-07T23:24:16.121Z,11.12
2023-01-07T23:26:46.962Z,11.05
2023-01-07T23:29:14.981Z,11.06
2023-01-07T23:31:43.085Z,11.17
2023-01-07T23:34:11.641Z,11.00
2023-01-07T23:36:40.020Z,11.09
2023-01-07T23:39:08.156Z,11.30
2023-01-07T23:41:36.188Z,11.09
2023-01-07T23:44:06.105Z,11.11
2023-01-07T23:46:34.493Z,11.25
2023-01-07T23:49:02.465Z,11.05
2023-01-07T23:51:30.589Z,11.11
2023-01-07T23:53:58.559Z,11.20
2023-01-07T23:56:26.701Z,11.14
2023-01-07T23:58:54.683Z,10.89
